Time;durP1;ratioP1;P1;durP2;ratioP2;P2;SDS_P1;SDS_P2;PMS_P1;PMS_P2;Temp;Humidity;BMP_temperature;BMP_pressure;BME280_temperature;BME280_humidity;BME280_pressure;Samples;Min_cycle;Max_cycle;Signal;HPM_P1;HPM_P2
2023/06/04 00:00:57;;;;;;;3.60;1.90;;;;;;;9.47;49.02;100653.50;30732289;28;104104;-65
2023/06/04 00:15:57;;;;;;;6.43;2.13;;;;;;;9.26;50.00;100656.41;30746826;28;96687;-67
2023/06/04 00:30:58;;;;;;;4.95;2.47;;;;;;;9.02;50.37;100656.16;30751905;28;96805;-66
2023/06/04 00:45:58;;;;;;;5.15;2.47;;;;;;;8.79;51.12;100636.16;30750856;28;96560;-67
2023/06/04 01:01:04;;;;;;;3.72;2.10;;;;;;;8.62;52.35;100634.25;30748992;28;96723;-65
2023/06/04 01:16:05;;;;;;;4.50;2.20;;;;;;;8.41;53.10;100635.28;30730406;28;97385;-65
2023/06/04 01:31:09;;;;;;;4.87;2.20;;;;;;;8.24;53.90;100636.91;30746135;28;96539;-66
2023/06/04 01:46:10;;;;;;;7.83;2.87;;;;;;;8.08;54.29;100637.50;30744796;28;96768;-66
2023/06/04 02:01:10;;;;;;;8.55;2.55;;;;;;;7.90;55.03;100631.22;30742212;28;112174;-66
2023/06/04 02:16:10;;;;;;;7.07;2.30;;;;;;;7.73;55.65;100628.31;30741809;28;97298;-66
2023/06/04 02:31:11;;;;;;;12.70;6.88;;;;;;;7.57;55.87;100638.66;30739605;28;96705;-66
2023/06/04 02:46:11;;;;;;;5.43;2.90;;;;;;;7.50;57.25;100638.38;30739135;28;97967;-65
2023/06/04 03:01:17;;;;;;;7.32;2.40;;;;;;;7.45;57.57;100630.84;30740394;28;113921;-65
2023/06/04 03:16:18;;;;;;;6.63;2.50;;;;;;;7.54;58.26;100649.53;30857087;28;96645;-65
2023/06/04 03:31:18;;;;;;;7.05;3.00;;;;;;;7.76;58.36;100665.19;30856034;28;97147;-65
2023/06/04 03:46:18;;;;;;;4.28;2.10;;;;;;;8.05;58.20;100659.00;30853937;28;107050;-66
2023/06/04 04:01:19;;;;;;;5.00;2.92;;;;;;;8.47;57.45;100673.72;30853866;28;109043;-65
2023/06/04 04:16:19;;;;;;;7.22;2.42;;;;;;;8.92;57.70;100667.66;30852604;28;99444;-66
2023/06/04 04:31:22;;;;;;;4.82;2.70;;;;;;;9.41;56.65;100674.53;30852135;28;96894;-66
2023/06/04 04:46:22;;;;;;;5.27;2.37;;;;;;;9.85;55.78;100679.09;30850612;28;97610;-66
2023/06/04 05:01:23;;;;;;;5.95;2.50;;;;;;;10.32;55.14;100676.94;30863482;28;96633;-66
2023/06/04 05:16:25;;;;;;;4.90;2.80;;;;;;;10.89;54.27;100685.44;30867499;28;96797;-66
2023/06/04 05:31:28;;;;;;;4.47;2.20;;;;;;;11.61;53.88;100690.31;30866226;28;96872;-66
2023/06/04 05:46:29;;;;;;;3.83;2.03;;;;;;;12.42;52.47;100687.81;30864816;28;96741;-65
2023/06/04 06:01:29;;;;;;;2.75;1.95;;;;;;;13.31;51.19;100695.66;30861971;28;96735;-66
2023/06/04 06:16:30;;;;;;;4.60;2.42;;;;;;;14.02;49.94;100695.53;30861047;28;102401;-66
2023/06/04 06:31:30;;;;;;;3.83;1.80;;;;;;;14.91;47.71;100705.53;30860746;28;96683;-67
2023/06/04 06:46:30;;;;;;;4.22;2.17;;;;;;;15.83;46.25;100704.13;30858040;28;98229;-66
2023/06/04 07:01:32;;;;;;;6.88;2.22;;;;;;;16.61;44.00;100710.50;30766158;28;102136;-67
2023/06/04 07:16:32;;;;;;;3.37;1.57;;;;;;;17.49;42.82;100710.72;30732364;28;97483;-65
2023/06/04 07:31:33;;;;;;;2.72;1.48;;;;;;;18.81;39.95;100710.13;30748006;28;96726;-66
2023/06/04 07:46:33;;;;;;;2.22;1.20;;;;;;;19.33;37.56;100714.72;30821880;28;96914;-65
2023/06/04 08:01:33;;;;;;;3.78;1.70;;;;;;;20.37;36.35;100709.06;30735384;28;111505;-65
2023/06/04 08:16:34;;;;;;;4.82;1.30;;;;;;;21.33;34.26;100703.19;30728386;28;96844;-65
2023/06/04 08:31:34;;;;;;;2.20;1.30;;;;;;;21.57;31.81;100707.69;30736741;28;103989;-66
2023/06/04 08:46:39;;;;;;;4.30;1.63;;;;;;;21.65;30.92;100706.50;30747855;28;97521;-65
2023/06/04 09:01:44;;;;;;;1.50;0.97;;;;;;;22.62;29.28;100718.94;30746245;28;97295;-65
2023/06/04 09:16:48;;;;;;;4.73;1.30;;;;;;;23.31;28.75;100715.47;30746334;28;97503;-65
2023/06/04 09:31:58;;;;;;;6.57;1.50;;;;;;;24.70;27.00;100708.81;30746014;28;96603;-66
2023/06/04 09:46:58;;;;;;;3.43;1.30;;;;;;;24.52;25.98;100712.59;30743889;28;96825;-66
2023/06/04 10:01:59;;;;;;;1.40;1.30;;;;;;;24.99;25.19;100695.00;30741884;28;96694;-65
2023/06/04 10:17:01;;;;;;;1.95;1.00;;;;;;;25.76;23.23;100681.34;30740832;28;97300;-66
2023/06/04 10:32:01;;;;;;;2.57;1.33;;;;;;;25.77;23.24;100672.91;30739085;28;97045;-66
2023/06/04 10:47:02;;;;;;;1.98;0.85;;;;;;;26.90;21.90;100667.34;30736744;28;97259;-66
2023/06/04 11:02:09;;;;;;;2.42;1.15;;;;;;;26.98;22.36;100672.28;30804209;28;97047;-66
2023/06/04 11:17:11;;;;;;;2.30;1.07;;;;;;;25.92;21.87;100663.19;30827875;28;96765;-66
2023/06/04 11:32:21;;;;;;;3.27;1.40;;;;;;;25.38;22.26;100658.63;30735573;28;97637;-66
2023/06/04 11:47:21;;;;;;;1.90;1.20;;;;;;;26.00;21.52;100649.88;30732466;28;96982;-66
2023/06/04 12:02:22;;;;;;;2.67;1.20;;;;;;;26.39;21.08;100650.69;30732850;28;97466;-72
2023/06/04 12:17:22;;;;;;;2.45;1.25;;;;;;;24.85;22.21;100642.78;30809959;28;96715;-66
2023/06/04 12:32:22;;;;;;;2.45;1.23;;;;;;;25.85;22.66;100620.56;30872560;28;96739;-67
2023/06/04 12:47:23;;;;;;;3.55;1.10;;;;;;;26.42;22.20;100633.75;30869904;28;107620;-67
2023/06/04 13:02:23;;;;;;;3.05;1.38;;;;;;;26.40;21.99;100631.31;30868982;28;96730;-67
2023/06/04 13:17:23;;;;;;;3.28;1.20;;;;;;;26.38;21.92;100616.25;30865933;28;112001;-66
2023/06/04 13:32:24;;;;;;;1.83;1.10;;;;;;;26.18;21.87;100607.69;30855310;28;97257;-66
2023/06/04 13:47:25;;;;;;;1.90;1.20;;;;;;;25.56;21.60;100609.16;30854403;28;98556;-65
2023/06/04 14:02:25;;;;;;;3.50;1.30;;;;;;;24.79;22.59;100589.31;30854198;28;98355;-65
2023/06/04 14:17:25;;;;;;;2.13;0.98;;;;;;;24.77;22.93;100588.75;30851407;28;97194;-68
2023/06/04 14:32:26;;;;;;;2.33;1.20;;;;;;;24.43;23.28;100588.88;30849518;28;108391;-65
2023/06/04 14:47:26;;;;;;;3.35;1.60;;;;;;;24.09;23.90;100573.44;30798333;28;97389;-66
2023/06/04 15:02:29;;;;;;;6.10;1.30;;;;;;;23.93;24.11;100577.84;30848082;28;97239;-68
2023/06/04 15:17:29;;;;;;;5.50;1.33;;;;;;;23.82;24.82;100560.53;30796411;28;97516;-68
2023/06/04 15:32:30;;;;;;;2.87;1.13;;;;;;;23.77;24.16;100554.16;30733556;28;96690;-64
2023/06/04 15:47:31;;;;;;;2.67;1.20;;;;;;;23.54;24.64;100555.19;30732129;28;111223;-65
2023/06/04 16:02:31;;;;;;;2.70;1.23;;;;;;;23.43;24.68;100548.78;30807655;28;110378;-65
2023/06/04 16:17:31;;;;;;;3.25;1.15;;;;;;;23.17;24.60;100537.47;30784399;28;102690;-64
2023/06/04 16:32:32;;;;;;;;;;;;;;;22.76;24.83;100544.88;30851684;28;110179;-64
2023/06/04 16:47:34;;;;;;;4.60;1.20;;;;;;;22.47;25.21;100550.25;30850674;28;96814;-65
2023/06/04 17:02:35;;;;;;;2.30;1.23;;;;;;;22.15;24.94;100550.66;30869804;28;97278;-64
2023/06/04 17:17:35;;;;;;;2.77;1.13;;;;;;;21.78;25.20;100550.94;30864652;28;102846;-64
2023/06/04 17:32:35;;;;;;;5.03;1.40;;;;;;;21.40;25.29;100568.44;30837330;28;97969;-64
2023/06/04 17:47:36;;;;;;;3.00;1.20;;;;;;;21.02;26.44;100561.50;30865229;28;97108;-69
2023/06/04 18:02:36;;;;;;;2.00;1.20;;;;;;;20.58;27.30;100564.34;30862785;28;97101;-68
2023/06/04 18:17:36;;;;;;;3.17;1.20;;;;;;;20.10;28.13;100564.03;30808802;28;107688;-69
2023/06/04 18:32:37;;;;;;;6.27;1.20;;;;;;;19.55;29.41;100567.44;30766222;28;96743;-66
2023/06/04 18:47:37;;;;;;;6.20;1.58;;;;;;;19.00;30.55;100570.75;30738694;28;97091;-69
2023/06/04 19:02:38;;;;;;;4.10;1.55;;;;;;;18.39;31.56;100586.34;30735799;28;102289;-75
2023/06/04 19:17:39;;;;;;;4.37;2.13;;;;;;;17.84;33.00;100605.50;30831221;28;96936;-64
2023/06/04 19:32:39;;;;;;;6.70;2.50;;;;;;;17.41;33.79;100632.81;30845675;28;108578;-62
2023/06/04 19:47:39;;;;;;;7.55;3.08;;;;;;;16.94;35.37;100632.69;30745889;28;97738;-64
2023/06/04 20:02:40;;;;;;;9.88;2.92;;;;;;;16.52;36.40;100640.75;30733256;28;107285;-64
2023/06/04 20:17:40;;;;;;;5.63;2.00;;;;;;;16.13;37.51;100644.84;30732203;28;97303;-64
2023/06/04 20:32:40;;;;;;;5.97;2.72;;;;;;;15.81;37.86;100655.13;30745402;28;109857;-63
2023/06/04 20:47:41;;;;;;;6.18;1.55;;;;;;;15.51;38.47;100662.47;30751233;28;97405;-65
2023/06/04 21:02:41;;;;;;;8.02;1.73;;;;;;;15.26;38.94;100672.75;30750097;28;103729;-62
2023/06/04 21:17:41;;;;;;;5.82;2.20;;;;;;;14.94;39.81;100673.00;30748298;28;109172;-64
2023/06/04 21:32:48;;;;;;;5.20;2.20;;;;;;;14.68;40.42;100676.13;30747344;28;96976;-64
2023/06/04 21:47:48;;;;;;;3.97;1.87;;;;;;;14.37;41.26;100677.13;30864176;28;97614;-66
2023/06/04 22:02:49;;;;;;;5.25;1.90;;;;;;;14.08;42.03;100694.81;30931089;28;97251;-66
2023/06/04 22:17:49;;;;;;;5.82;1.90;;;;;;;13.83;42.92;100689.66;30923472;28;96766;-66
2023/06/04 22:32:49;;;;;;;4.95;2.17;;;;;;;13.61;43.76;100679.78;30893066;28;96643;-67
2023/06/04 22:47:50;;;;;;;4.57;2.10;;;;;;;13.40;44.02;100681.25;30947187;28;96757;-66
2023/06/04 23:02:50;;;;;;;6.70;2.60;;;;;;;13.18;44.78;100691.72;30933419;28;98250;-66
2023/06/04 23:17:51;;;;;;;4.57;2.40;;;;;;;12.96;45.38;100687.16;30862583;28;105264;-65
2023/06/04 23:32:51;;;;;;;9.77;2.30;;;;;;;12.73;45.75;100687.06;30979152;28;97420;-65
2023/06/04 23:47:52;;;;;;;5.97;2.13;;;;;;;12.48;46.71;100690.63;30978195;28;97324;-65
